AUA221 LOWW-LOWS
Flight info
| Callsign | AUA221 |
|---|---|
| Flight time | 0h 28m |
| Altitude | 16000 |
| Route | SOVIL1C/29 SOVIL DCT SITNI DCT BAGSI DCT MATIG MATIG2R |
| Aircraft | A319/M-SDE3FGHIRWY/LB1 |
Departure
| Time | 2026-04-25 19:38 |
|---|---|
| Airport | Vienna International Airport (LOWW) |
Arrival
| Time | 2026-04-25 20:07 |
|---|---|
| Airport | Salzburg Airport (LOWS) |
| Time | Latitude | Longitude | Altitude | Speed | Heading |
|---|---|---|---|---|---|
| 2026-04-25 19:23 | 48.11589 | 16.56631 | 610 ft | 0 kts | 206° |
| 2026-04-25 19:35 | 48.11570 | 16.56620 | 609 ft | 9 kts | 200° |
| 2026-04-25 19:35 | 48.11492 | 16.56604 | 609 ft | 13 kts | 185° |
| 2026-04-25 19:35 | 48.11410 | 16.56664 | 616 ft | 16 kts | 121° |
| 2026-04-25 19:35 | 48.11358 | 16.56820 | 612 ft | 17 kts | 116° |
| 2026-04-25 19:36 | 48.11301 | 16.56993 | 611 ft | 19 kts | 116° |
| 2026-04-25 19:36 | 48.11239 | 16.57186 | 611 ft | 22 kts | 115° |
| 2026-04-25 19:36 | 48.11181 | 16.57366 | 621 ft | 17 kts | 116° |
| 2026-04-25 19:36 | 48.11126 | 16.57535 | 616 ft | 20 kts | 116° |
| 2026-04-25 19:37 | 48.11023 | 16.57636 | 619 ft | 21 kts | 202° |
| 2026-04-25 19:37 | 48.10933 | 16.57477 | 609 ft | 22 kts | 289° |
| 2026-04-25 19:37 | 48.10954 | 16.57407 | 618 ft | 8 kts | 294° |
| 2026-04-25 19:37 | 48.11062 | 16.57070 | 611 ft | 73 kts | 295° |
| 2026-04-25 19:38 | 48.11384 | 16.56090 | 609 ft | 134 kts | 296° |
| 2026-04-25 19:38 | 48.11842 | 16.54681 | 938 ft | 153 kts | 295° |
| 2026-04-25 19:38 | 48.12142 | 16.53139 | 1497 ft | 161 kts | 272° |
| 2026-04-25 19:38 | 48.11789 | 16.51460 | 1999 ft | 185 kts | 241° |
| 2026-04-25 19:39 | 48.10729 | 16.50151 | 2505 ft | 210 kts | 221° |
| 2026-04-25 19:39 | 48.09478 | 16.48919 | 3015 ft | 217 kts | 219° |
| 2026-04-25 19:39 | 48.08210 | 16.47678 | 3512 ft | 218 kts | 218° |
| 2026-04-25 19:39 | 48.06982 | 16.46278 | 4066 ft | 231 kts | 224° |
| 2026-04-25 19:40 | 48.05702 | 16.44621 | 4513 ft | 255 kts | 224° |
| 2026-04-25 19:40 | 48.04316 | 16.42799 | 5119 ft | 271 kts | 224° |
| 2026-04-25 19:40 | 48.02884 | 16.40923 | 6028 ft | 276 kts | 224° |
| 2026-04-25 19:40 | 48.01433 | 16.39036 | 6958 ft | 278 kts | 223° |
| 2026-04-25 19:41 | 47.99971 | 16.37136 | 7883 ft | 280 kts | 224° |
| 2026-04-25 19:41 | 47.98499 | 16.35218 | 8834 ft | 281 kts | 225° |
| 2026-04-25 19:41 | 47.97258 | 16.32986 | 9751 ft | 279 kts | 243° |
| 2026-04-25 19:41 | 47.96967 | 16.32153 | 10041 ft | 278 kts | 249° |
| 2026-04-25 19:42 | 47.96424 | 16.27428 | 11229 ft | 286 kts | 276° |
| 2026-04-25 19:42 | 47.96705 | 16.24369 | 11488 ft | 309 kts | 279° |
| 2026-04-25 19:42 | 47.97027 | 16.21120 | 12003 ft | 321 kts | 279° |
| 2026-04-25 19:42 | 47.97353 | 16.17794 | 12742 ft | 325 kts | 279° |
| 2026-04-25 19:43 | 47.97675 | 16.14440 | 13543 ft | 328 kts | 279° |
| 2026-04-25 19:43 | 47.97995 | 16.11056 | 14261 ft | 331 kts | 278° |
| 2026-04-25 19:43 | 47.98312 | 16.07643 | 14948 ft | 333 kts | 278° |
| 2026-04-25 19:43 | 47.98590 | 16.04191 | 15637 ft | 337 kts | 276° |
| 2026-04-25 19:44 | 47.98779 | 16.00681 | 15919 ft | 352 kts | 275° |
| 2026-04-25 19:44 | 47.98926 | 15.96881 | 16009 ft | 372 kts | 274° |
| 2026-04-25 19:44 | 47.99049 | 15.92988 | 16016 ft | 390 kts | 274° |
| 2026-04-25 19:44 | 47.99178 | 15.88860 | 16005 ft | 405 kts | 274° |
| 2026-04-25 19:45 | 47.99317 | 15.84621 | 16010 ft | 412 kts | 274° |
| 2026-04-25 19:45 | 47.99466 | 15.80346 | 16025 ft | 413 kts | 274° |
| 2026-04-25 19:45 | 47.99623 | 15.76065 | 16029 ft | 413 kts | 274° |
| 2026-04-25 19:45 | 47.99781 | 15.71779 | 16018 ft | 414 kts | 274° |
| 2026-04-25 19:46 | 47.99942 | 15.67479 | 16024 ft | 414 kts | 274° |
| 2026-04-25 19:46 | 48.00104 | 15.63195 | 16034 ft | 413 kts | 274° |
| 2026-04-25 19:46 | 48.00265 | 15.58909 | 16035 ft | 414 kts | 274° |
| 2026-04-25 19:46 | 48.00422 | 15.54611 | 16035 ft | 414 kts | 274° |
| 2026-04-25 19:47 | 48.00574 | 15.50325 | 16037 ft | 413 kts | 274° |
| 2026-04-25 19:47 | 48.00722 | 15.46037 | 16036 ft | 413 kts | 274° |
| 2026-04-25 19:47 | 48.00870 | 15.41755 | 16038 ft | 414 kts | 274° |
| 2026-04-25 19:47 | 48.01021 | 15.37467 | 16034 ft | 414 kts | 274° |
| 2026-04-25 19:48 | 48.01172 | 15.33165 | 16039 ft | 415 kts | 274° |
| 2026-04-25 19:48 | 48.01320 | 15.28856 | 16042 ft | 414 kts | 274° |
| 2026-04-25 19:48 | 48.01465 | 15.24569 | 16039 ft | 414 kts | 274° |
| 2026-04-25 19:48 | 48.01608 | 15.20267 | 16042 ft | 415 kts | 274° |
| 2026-04-25 19:49 | 48.01753 | 15.15962 | 16039 ft | 414 kts | 274° |
| 2026-04-25 19:49 | 48.01800 | 15.14569 | 16040 ft | 414 kts | 274° |
| 2026-04-25 19:49 | 48.02032 | 15.07372 | 16041 ft | 415 kts | 274° |
| 2026-04-25 19:49 | 48.02162 | 15.03127 | 16044 ft | 415 kts | 274° |
| 2026-04-25 19:50 | 48.02419 | 14.94517 | 16042 ft | 414 kts | 274° |
| 2026-04-25 19:50 | 48.02547 | 14.90217 | 16043 ft | 414 kts | 274° |
| 2026-04-25 19:50 | 48.02676 | 14.85917 | 16047 ft | 414 kts | 274° |
| 2026-04-25 19:51 | 48.02803 | 14.81622 | 16042 ft | 414 kts | 274° |
| 2026-04-25 19:51 | 48.02929 | 14.77323 | 16043 ft | 414 kts | 274° |
| 2026-04-25 19:51 | 48.03052 | 14.73024 | 16046 ft | 414 kts | 274° |
| 2026-04-25 19:51 | 48.03176 | 14.68717 | 16045 ft | 414 kts | 274° |
| 2026-04-25 19:52 | 48.03299 | 14.64426 | 16046 ft | 414 kts | 274° |
| 2026-04-25 19:52 | 48.03422 | 14.60116 | 16046 ft | 414 kts | 274° |
| 2026-04-25 19:52 | 48.03544 | 14.55814 | 16049 ft | 415 kts | 274° |
| 2026-04-25 19:52 | 48.03663 | 14.51509 | 16051 ft | 415 kts | 274° |
| 2026-04-25 19:53 | 48.03777 | 14.47193 | 16049 ft | 415 kts | 274° |
| 2026-04-25 19:53 | 48.03888 | 14.42884 | 16050 ft | 415 kts | 274° |
| 2026-04-25 19:53 | 48.03997 | 14.38578 | 16005 ft | 414 kts | 273° |
| 2026-04-25 19:53 | 48.04100 | 14.34355 | 15699 ft | 410 kts | 273° |
| 2026-04-25 19:54 | 48.04203 | 14.30111 | 15399 ft | 404 kts | 274° |
| 2026-04-25 19:54 | 48.04307 | 14.25943 | 15105 ft | 399 kts | 274° |
| 2026-04-25 19:54 | 48.04409 | 14.21811 | 14816 ft | 397 kts | 274° |
| 2026-04-25 19:54 | 48.04443 | 14.20420 | 14717 ft | 396 kts | 274° |
| 2026-04-25 19:55 | 48.04609 | 14.13610 | 14231 ft | 394 kts | 274° |
| 2026-04-25 19:55 | 48.04708 | 14.09518 | 13946 ft | 393 kts | 274° |
| 2026-04-25 19:55 | 48.04788 | 14.05440 | 13640 ft | 392 kts | 272° |
| 2026-04-25 19:55 | 48.04754 | 14.01381 | 13327 ft | 391 kts | 270° |
| 2026-04-25 19:56 | 48.04624 | 13.97330 | 13011 ft | 389 kts | 268° |
| 2026-04-25 19:56 | 48.04447 | 13.93309 | 12700 ft | 387 kts | 268° |
| 2026-04-25 19:56 | 48.04261 | 13.89307 | 12396 ft | 385 kts | 268° |
| 2026-04-25 19:56 | 48.04083 | 13.85321 | 12030 ft | 381 kts | 268° |
| 2026-04-25 19:57 | 48.03921 | 13.81415 | 11616 ft | 372 kts | 268° |
| 2026-04-25 19:57 | 48.03774 | 13.77583 | 11220 ft | 367 kts | 268° |
| 2026-04-25 19:57 | 48.03637 | 13.73787 | 10827 ft | 365 kts | 268° |
| 2026-04-25 19:57 | 48.03502 | 13.70020 | 10442 ft | 362 kts | 268° |
| 2026-04-25 19:58 | 48.03368 | 13.66272 | 10059 ft | 360 kts | 268° |
| 2026-04-25 19:58 | 48.03235 | 13.62598 | 9650 ft | 358 kts | 268° |
| 2026-04-25 19:58 | 48.03098 | 13.58892 | 9240 ft | 357 kts | 268° |
| 2026-04-25 19:58 | 48.02957 | 13.55145 | 8850 ft | 364 kts | 268° |
| 2026-04-25 19:59 | 48.02814 | 13.51368 | 8466 ft | 363 kts | 268° |
| 2026-04-25 19:59 | 48.02668 | 13.47610 | 8090 ft | 362 kts | 268° |
| 2026-04-25 19:59 | 48.02522 | 13.43868 | 7713 ft | 359 kts | 268° |
| 2026-04-25 19:59 | 48.02375 | 13.40149 | 7339 ft | 357 kts | 268° |
| 2026-04-25 20:00 | 48.02227 | 13.36457 | 6975 ft | 355 kts | 267° |
| 2026-04-25 20:00 | 48.02179 | 13.35262 | 6853 ft | 353 kts | 267° |
| 2026-04-25 20:00 | 48.01943 | 13.29284 | 6231 ft | 340 kts | 267° |
| 2026-04-25 20:00 | 48.01802 | 13.25769 | 5997 ft | 339 kts | 267° |
| 2026-04-25 20:01 | 48.01510 | 13.18708 | 5973 ft | 341 kts | 267° |
| 2026-04-25 20:01 | 48.01413 | 13.16369 | 5885 ft | 340 kts | 267° |
| 2026-04-25 20:01 | 48.01267 | 13.12839 | 5759 ft | 340 kts | 267° |
| 2026-04-25 20:02 | 48.01121 | 13.09315 | 5632 ft | 340 kts | 267° |
| 2026-04-25 20:02 | 48.00974 | 13.05794 | 5505 ft | 340 kts | 267° |
| 2026-04-25 20:02 | 48.00789 | 13.02283 | 5376 ft | 339 kts | 263° |
| 2026-04-25 20:02 | 48.00083 | 12.98938 | 5261 ft | 333 kts | 245° |
| 2026-04-25 20:03 | 47.98797 | 12.96197 | 5127 ft | 315 kts | 229° |
| 2026-04-25 20:03 | 47.97126 | 12.94195 | 4794 ft | 307 kts | 214° |
| 2026-04-25 20:03 | 47.95173 | 12.92978 | 4378 ft | 298 kts | 197° |
| 2026-04-25 20:03 | 47.93175 | 12.92618 | 4070 ft | 282 kts | 182° |
| 2026-04-25 20:04 | 47.91288 | 12.92982 | 3734 ft | 262 kts | 167° |
| 2026-04-25 20:04 | 47.89669 | 12.93846 | 3422 ft | 241 kts | 158° |
| 2026-04-25 20:04 | 47.88189 | 12.94787 | 3116 ft | 222 kts | 158° |
| 2026-04-25 20:04 | 47.86834 | 12.95646 | 2840 ft | 203 kts | 158° |
| 2026-04-25 20:05 | 47.85588 | 12.96436 | 2584 ft | 182 kts | 159° |
| 2026-04-25 20:05 | 47.84492 | 12.97130 | 2343 ft | 161 kts | 158° |
| 2026-04-25 20:05 | 47.83509 | 12.97752 | 2135 ft | 149 kts | 158° |
| 2026-04-25 20:05 | 47.82575 | 12.98343 | 1942 ft | 143 kts | 157° |
| 2026-04-25 20:06 | 47.81672 | 12.98914 | 1755 ft | 140 kts | 157° |
| 2026-04-25 20:06 | 47.80784 | 12.99475 | 1570 ft | 138 kts | 158° |
| 2026-04-25 20:06 | 47.79905 | 13.00031 | 1422 ft | 134 kts | 157° |
| 2026-04-25 20:06 | 47.79242 | 13.00456 | 1417 ft | 54 kts | 158° |
| 2026-04-25 20:07 | 47.79115 | 13.00396 | 1414 ft | 16 kts | 268° |
| 2026-04-25 20:07 | 47.79117 | 13.00371 | 1414 ft | 0 kts | 275° |
| 2026-04-25 20:08 | 47.79117 | 13.00370 | 1414 ft | 0 kts | 275° |
| 2026-04-25 20:08 | 47.79117 | 13.00362 | 1414 ft | 0 kts | 275° |
| 2026-04-25 20:08 | 47.79117 | 13.00361 | 1414 ft | 0 kts | 275° |
| 2026-04-25 20:09 | 47.79118 | 13.00351 | 1414 ft | 2 kts | 275° |
| 2026-04-25 20:09 | 47.79117 | 13.00322 | 1414 ft | 5 kts | 259° |
| 2026-04-25 20:09 | 47.79070 | 13.00298 | 1414 ft | 12 kts | 168° |
| 2026-04-25 20:09 | 47.78987 | 13.00342 | 1417 ft | 13 kts | 177° |
| 2026-04-25 20:10 | 47.78952 | 13.00239 | 1418 ft | 13 kts | 272° |